Nome, AK (99762)

2:38 PM AKDT on August 28, 2015 (GMT -0800)
NOS_NWLON | | Change Station
CLOSE
Current Station
Personal Weather Station
Location: Nome, AK
Elevation: 0 ft
Nearby Weather Stations

Elev 0 ft 64.50 °N, 165.43 °W | Updated 32 minutes ago

Overcast
Overcast
50.0 °F
Feels Like 45 °F
N
13.0
Wind Variable Wind from West
Gusts 14.0 mph

Today
High -- | Low -- °F
--% Chance of Precip.
Yesterday
High -- | Low -- °F
Precip. -- in
7:30 AM 10:32 PM
Waxing Gibbous, 99% visible
Pressure 29.99 in
Visibility 10.0 miles
Clouds Few 6000 ft
Scattered Clouds 10000 ft
Overcast 18000 ft
Windchill 45 °F
Dew Point Not available.
Humidity Not available.
Rainfall in
Snow Depth Not available.
UV 1 out of 12
Pollen Not available.
Air Quality Not available.
Flu Activity Not available.
METAR PAOM 282153Z 24009KT 10SM FEW060 SCT100 OVC180 09/06 A2998 RMK SLP153 T00940056 VIA AUTODIAL
Pressure 29.99 in
Visibility 10.0 miles
Clouds Few 6000 ft
Scattered Clouds 10000 ft
Overcast 18000 ft
Windchill 45 °F
Dew Point Not available.
Humidity Not available.
Rainfall in
Snow Depth Not available.
UV 1 out of 12
Pollen Not available.
Air Quality Not available.
Flu Activity Not available.
METAR PAOM 282153Z 24009KT 10SM FEW060 SCT100 OVC180 09/06 A2998 RMK SLP153 T00940056 VIA AUTODIAL

10-Day Weather Forecast

×

Almanac

Astronomy

Aug. 28, 2015 Rise Set
Actual Time
Civil Twilight
Nautical Twilight
Astronomical Twilight
Moon
Length of Visible Light
Length of Day
Tomorrow will be .
, % of the Moon is Illuminated

Today's Extremes

State Highs State Lows

Community

WunderPhotos

Upload Photos

1,850,515 photos uploaded!

WunderBlogs® & News

Nearby

Air Quality

  Air Quality AQ Index Pollutant
Not available.

Snow Depth

Station Depth Elevation

Earthquake Activity

City Distance Mag. Time & Date
Minimum magnitude displayed is 2.5.

Coastal Water Temperatures

Place Temperature

Stations

Nearby Weather Stations

Station Location Temp. Windchill Dew Point Humidity Wind Precip. Elev Updated Type